sensor_id;sensor_type;location;lat;lon;timestamp;pressure;altitude;pressure_sealevel;temperature;humidity
64388;BME280;50709;52.648;4.764;2023-04-07T00:00:36;101505.38;;;15.08;61.58
64388;BME280;50709;52.648;4.764;2023-04-07T00:03:22;101504.50;;;15.05;62.14
64388;BME280;50709;52.648;4.764;2023-04-07T00:05:50;101513.41;;;14.84;62.93
64388;BME280;50709;52.648;4.764;2023-04-07T00:08:37;101505.41;;;15.05;62.10
64388;BME280;50709;52.648;4.764;2023-04-07T00:11:02;101509.00;;;14.90;61.76
64388;BME280;50709;52.648;4.764;2023-04-07T00:13:32;101502.91;;;14.80;62.81
64388;BME280;50709;52.648;4.764;2023-04-07T00:15:57;101510.72;;;14.96;61.82
64388;BME280;50709;52.648;4.764;2023-04-07T00:18:25;101515.16;;;14.78;62.35
64388;BME280;50709;52.648;4.764;2023-04-07T00:20:51;101508.03;;;15.01;61.63
64388;BME280;50709;52.648;4.764;2023-04-07T00:23:16;101507.28;;;14.78;62.04
64388;BME280;50709;52.648;4.764;2023-04-07T00:25:42;101497.59;;;14.88;61.89
64388;BME280;50709;52.648;4.764;2023-04-07T00:28:08;101504.44;;;15.20;60.94
64388;BME280;50709;52.648;4.764;2023-04-07T00:30:33;101501.78;;;15.22;61.08
64388;BME280;50709;52.648;4.764;2023-04-07T00:33:00;101502.72;;;15.10;61.01
64388;BME280;50709;52.648;4.764;2023-04-07T00:35:46;101504.47;;;15.12;60.89
64388;BME280;50709;52.648;4.764;2023-04-07T00:38:14;101503.56;;;15.17;60.84
64388;BME280;50709;52.648;4.764;2023-04-07T00:40:43;101513.19;;;15.19;60.78
64388;BME280;50709;52.648;4.764;2023-04-07T00:43:10;101507.22;;;14.89;61.68
64388;BME280;50709;52.648;4.764;2023-04-07T00:45:57;101512.56;;;14.77;62.80
64388;BME280;50709;52.648;4.764;2023-04-07T00:48:26;101459.16;;;14.67;61.40
64388;BME280;50709;52.648;4.764;2023-04-07T00:50:51;101510.53;;;15.27;61.03
64388;BME280;50709;52.648;4.764;2023-04-07T00:53:18;101518.44;;;15.21;60.15
64388;BME280;50709;52.648;4.764;2023-04-07T00:56:06;101527.25;;;15.17;61.37
64388;BME280;50709;52.648;4.764;2023-04-07T00:58:34;101522.84;;;15.19;60.84
64388;BME280;50709;52.648;4.764;2023-04-07T01:01:26;101500.16;;;14.97;61.46
64388;BME280;50709;52.648;4.764;2023-04-07T01:04:25;101516.09;;;14.59;62.67
64388;BME280;50709;52.648;4.764;2023-04-07T01:06:58;101520.41;;;14.80;61.79
64388;BME280;50709;52.648;4.764;2023-04-07T01:09:36;101496.81;;;14.69;62.23
64388;BME280;50709;52.648;4.764;2023-04-07T01:12:11;101493.28;;;14.78;62.78
64388;BME280;50709;52.648;4.764;2023-04-07T01:14:46;101509.09;;;14.59;62.64
64388;BME280;50709;52.648;4.764;2023-04-07T01:17:34;101503.72;;;14.90;62.23
64388;BME280;50709;52.648;4.764;2023-04-07T01:20:22;101516.88;;;14.89;61.37
64388;BME280;50709;52.648;4.764;2023-04-07T01:23:08;101520.41;;;14.82;62.41
64388;BME280;50709;52.648;4.764;2023-04-07T01:26:19;101526.59;;;14.62;62.09
64388;BME280;50709;52.648;4.764;2023-04-07T01:29:25;101526.59;;;14.59;62.11
64388;BME280;50709;52.648;4.764;2023-04-07T01:31:59;101522.25;;;14.50;63.16
64388;BME280;50709;52.648;4.764;2023-04-07T01:34:28;101524.88;;;14.67;62.44
64388;BME280;50709;52.648;4.764;2023-04-07T01:36:58;101508.19;;;14.73;62.24
64388;BME280;50709;52.648;4.764;2023-04-07T01:39:27;101522.19;;;14.81;61.71
64388;BME280;50709;52.648;4.764;2023-04-07T01:41:54;101522.22;;;14.55;61.84
64388;BME280;50709;52.648;4.764;2023-04-07T01:44:22;101521.38;;;14.65;62.24
64388;BME280;50709;52.648;4.764;2023-04-07T01:46:50;101516.19;;;14.23;63.08
64388;BME280;50709;52.648;4.764;2023-04-07T01:49:15;101519.66;;;14.42;62.92
64388;BME280;50709;52.648;4.764;2023-04-07T01:51:47;101519.72;;;14.19;62.84
64388;BME280;50709;52.648;4.764;2023-04-07T01:54:17;101525.88;;;14.10;64.54
64388;BME280;50709;52.648;4.764;2023-04-07T01:56:49;101523.16;;;14.38;63.30
64388;BME280;50709;52.648;4.764;2023-04-07T01:59:16;101526.66;;;14.46;63.43
64388;BME280;50709;52.648;4.764;2023-04-07T02:01:42;101523.13;;;14.57;63.45
64388;BME280;50709;52.648;4.764;2023-04-07T02:04:31;101529.28;;;14.50;63.00
64388;BME280;50709;52.648;4.764;2023-04-07T02:07:45;101516.94;;;14.73;62.72
64388;BME280;50709;52.648;4.764;2023-04-07T02:10:36;101526.50;;;14.90;61.70
64388;BME280;50709;52.648;4.764;2023-04-07T02:13:07;101504.75;;;14.46;62.64
64388;BME280;50709;52.648;4.764;2023-04-07T02:15:36;101528.38;;;14.57;63.17
64388;BME280;50709;52.648;4.764;2023-04-07T02:18:09;101524.88;;;14.67;63.38
64388;BME280;50709;52.648;4.764;2023-04-07T02:21:00;101545.00;;;14.59;63.12
64388;BME280;50709;52.648;4.764;2023-04-07T02:23:27;101537.09;;;14.77;62.55
64388;BME280;50709;52.648;4.764;2023-04-07T02:25:56;101533.63;;;14.74;62.92
64388;BME280;50709;52.648;4.764;2023-04-07T02:28:26;101496.81;;;14.69;62.22
64388;BME280;50709;52.648;4.764;2023-04-07T02:31:14;101541.53;;;14.65;62.19
64388;BME280;50709;52.648;4.764;2023-04-07T02:33:39;101533.59;;;14.61;63.08
64388;BME280;50709;52.648;4.764;2023-04-07T02:36:06;101534.44;;;14.79;62.03
64388;BME280;50709;52.648;4.764;2023-04-07T02:38:35;101535.28;;;14.89;62.46
64388;BME280;50709;52.648;4.764;2023-04-07T02:41:00;101537.06;;;14.85;62.20
64388;BME280;50709;52.648;4.764;2023-04-07T02:43:30;101523.09;;;14.69;61.95
64388;BME280;50709;52.648;4.764;2023-04-07T02:46:16;101535.28;;;14.87;61.87
64388;BME280;50709;52.648;4.764;2023-04-07T02:48:42;101539.78;;;14.50;63.14
64388;BME280;50709;52.648;4.764;2023-04-07T02:51:10;101542.38;;;14.74;62.53
64388;BME280;50709;52.648;4.764;2023-04-07T02:53:40;101529.25;;;14.62;62.58
64388;BME280;50709;52.648;4.764;2023-04-07T02:56:08;101526.56;;;14.76;62.49
64388;BME280;50709;52.648;4.764;2023-04-07T02:58:35;101536.16;;;14.95;62.05
64388;BME280;50709;52.648;4.764;2023-04-07T03:01:05;101537.88;;;14.96;62.09
64388;BME280;50709;52.648;4.764;2023-04-07T03:03:30;101545.94;;;14.49;62.40
64388;BME280;50709;52.648;4.764;2023-04-07T03:05:57;101535.38;;;14.67;62.75
64388;BME280;50709;52.648;4.764;2023-04-07T03:08:24;101538.81;;;14.80;61.99
64388;BME280;50709;52.648;4.764;2023-04-07T03:10:52;101539.78;;;14.53;63.51
64388;BME280;50709;52.648;4.764;2023-04-07T03:13:25;101542.34;;;14.80;61.71
64388;BME280;50709;52.648;4.764;2023-04-07T03:15:54;101537.13;;;14.68;62.66
64388;BME280;50709;52.648;4.764;2023-04-07T03:18:21;101537.13;;;14.67;62.12
64388;BME280;50709;52.648;4.764;2023-04-07T03:20:47;101526.72;;;14.22;63.24
64388;BME280;50709;52.648;4.764;2023-04-07T03:23:14;101535.41;;;14.42;63.01
64388;BME280;50709;52.648;4.764;2023-04-07T03:25:43;101544.25;;;14.21;64.22
64388;BME280;50709;52.648;4.764;2023-04-07T03:28:10;101527.56;;;14.33;63.79
64388;BME280;50709;52.648;4.764;2023-04-07T03:30:38;101527.59;;;14.16;63.54
64388;BME280;50709;52.648;4.764;2023-04-07T03:33:03;101522.31;;;14.35;63.37
64388;BME280;50709;52.648;4.764;2023-04-07T03:35:50;101536.25;;;14.58;62.87
64388;BME280;50709;52.648;4.764;2023-04-07T03:38:38;101536.34;;;14.34;62.64
64388;BME280;50709;52.648;4.764;2023-04-07T03:41:05;101534.50;;;14.60;61.90
64388;BME280;50709;52.648;4.764;2023-04-07T03:43:31;101544.19;;;14.40;62.96
64388;BME280;50709;52.648;4.764;2023-04-07T03:45:56;101545.88;;;14.55;62.63
64388;BME280;50709;52.648;4.764;2023-04-07T03:48:24;101544.22;;;14.17;63.69
64388;BME280;50709;52.648;4.764;2023-04-07T03:51:00;101529.34;;;14.20;63.86
64388;BME280;50709;52.648;4.764;2023-04-07T03:53:49;101541.59;;;14.24;62.98
64388;BME280;50709;52.648;4.764;2023-04-07T03:56:15;101551.22;;;14.27;63.80
64388;BME280;50709;52.648;4.764;2023-04-07T03:59:01;101558.25;;;14.19;63.80
64388;BME280;50709;52.648;4.764;2023-04-07T04:01:30;101552.13;;;14.09;63.55
64388;BME280;50709;52.648;4.764;2023-04-07T04:04:15;101553.00;;;14.02;63.90
64388;BME280;50709;52.648;4.764;2023-04-07T04:07:02;101552.13;;;14.21;63.62
64388;BME280;50709;52.648;4.764;2023-04-07T04:09:29;101545.09;;;14.31;63.32
64388;BME280;50709;52.648;4.764;2023-04-07T04:11:55;101546.84;;;14.26;63.51
64388;BME280;50709;52.648;4.764;2023-04-07T04:14:22;101553.88;;;14.15;64.06
64388;BME280;50709;52.648;4.764;2023-04-07T04:16:49;101551.25;;;14.18;64.33
64388;BME280;50709;52.648;4.764;2023-04-07T04:19:18;101555.63;;;14.12;64.26
64388;BME280;50709;52.648;4.764;2023-04-07T04:22:06;101538.09;;;14.13;63.54
64388;BME280;50709;52.648;4.764;2023-04-07T04:24:32;101545.09;;;14.33;63.76
64388;BME280;50709;52.648;4.764;2023-04-07T04:27:00;101556.44;;;14.41;63.32
64388;BME280;50709;52.648;4.764;2023-04-07T04:29:32;101548.63;;;14.07;64.46
64388;BME280;50709;52.648;4.764;2023-04-07T04:32:17;101528.44;;;14.30;62.59
64388;BME280;50709;52.648;4.764;2023-04-07T04:35:06;101558.22;;;14.36;62.96
64388;BME280;50709;52.648;4.764;2023-04-07T04:37:35;101554.75;;;14.15;63.93
64388;BME280;50709;52.648;4.764;2023-04-07T04:40:04;101531.09;;;14.18;63.41
64388;BME280;50709;52.648;4.764;2023-04-07T04:42:34;101560.00;;;14.32;63.42
64388;BME280;50709;52.648;4.764;2023-04-07T04:45:22;101553.81;;;14.41;63.00
64388;BME280;50709;52.648;4.764;2023-04-07T04:47:49;101566.09;;;14.34;62.82
64388;BME280;50709;52.648;4.764;2023-04-07T04:50:16;101563.50;;;14.12;63.69
64388;BME280;50709;52.648;4.764;2023-04-07T04:52:43;101555.63;;;13.94;63.96
64388;BME280;50709;52.648;4.764;2023-04-07T04:55:10;101573.16;;;13.95;64.02
64388;BME280;50709;52.648;4.764;2023-04-07T04:58:16;101567.00;;;14.10;63.58
64388;BME280;50709;52.648;4.764;2023-04-07T05:01:02;101583.63;;;14.07;64.48
64388;BME280;50709;52.648;4.764;2023-04-07T05:03:27;101575.78;;;14.01;63.17
64388;BME280;50709;52.648;4.764;2023-04-07T05:06:13;101575.75;;;14.26;63.63
64388;BME280;50709;52.648;4.764;2023-04-07T05:08:58;101558.25;;;14.03;63.39
64388;BME280;50709;52.648;4.764;2023-04-07T05:11:47;101569.63;;;14.25;62.35
64388;BME280;50709;52.648;4.764;2023-04-07T05:14:14;101575.72;;;14.40;61.73
64388;BME280;50709;52.648;4.764;2023-04-07T05:17:00;101588.84;;;14.55;62.10
64388;BME280;50709;52.648;4.764;2023-04-07T05:19:27;101587.84;;;14.95;60.74
64388;BME280;50709;52.648;4.764;2023-04-07T05:21:54;101595.47;;;15.52;58.48
64388;BME280;50709;52.648;4.764;2023-04-07T05:24:19;101586.50;;;15.81;57.66
64388;BME280;50709;52.648;4.764;2023-04-07T05:26:45;101580.19;;;16.02;56.99
64388;BME280;50709;52.648;4.764;2023-04-07T05:29:11;101585.47;;;15.99;57.23
64388;BME280;50709;52.648;4.764;2023-04-07T05:31:39;101589.16;;;15.75;58.25
64388;BME280;50709;52.648;4.764;2023-04-07T05:34:07;101589.38;;;16.51;55.61
64388;BME280;50709;52.648;4.764;2023-04-07T05:36:34;101592.34;;;17.01;54.37
64388;BME280;50709;52.648;4.764;2023-04-07T05:39:01;101595.25;;;16.76;54.64
64388;BME280;50709;52.648;4.764;2023-04-07T05:41:28;101598.47;;;17.03;53.96
64388;BME280;50709;52.648;4.764;2023-04-07T05:43:53;101600.16;;;17.10;53.94
64388;BME280;50709;52.648;4.764;2023-04-07T05:46:20;101598.25;;;17.20;53.26
64388;BME280;50709;52.648;4.764;2023-04-07T05:49:08;101596.72;;;17.66;52.73
64388;BME280;50709;52.648;4.764;2023-04-07T05:52:15;101593.63;;;17.97;50.81
64388;BME280;50709;52.648;4.764;2023-04-07T05:54:45;101598.59;;;17.59;51.75
64388;BME280;50709;52.648;4.764;2023-04-07T05:57:30;101598.44;;;17.69;52.51
64388;BME280;50709;52.648;4.764;2023-04-07T05:59:58;101612.34;;;17.81;51.22
64388;BME280;50709;52.648;4.764;2023-04-07T06:02:24;101599.84;;;17.94;51.89
64388;BME280;50709;52.648;4.764;2023-04-07T06:05:11;101611.34;;;18.42;50.31
64388;BME280;50709;52.648;4.764;2023-04-07T06:08:01;101608.69;;;18.42;49.83
64388;BME280;50709;52.648;4.764;2023-04-07T06:10:38;101613.88;;;18.48;50.62
64388;BME280;50709;52.648;4.764;2023-04-07T06:13:29;101614.75;;;18.95;48.87
64388;BME280;50709;52.648;4.764;2023-04-07T06:15:56;101611.06;;;18.57;49.79
64388;BME280;50709;52.648;4.764;2023-04-07T06:18:45;101616.94;;;18.72;49.84
64388;BME280;50709;52.648;4.764;2023-04-07T06:21:32;101604.72;;;19.11;48.74
64388;BME280;50709;52.648;4.764;2023-04-07T06:24:21;101619.53;;;18.76;48.72
64388;BME280;50709;52.648;4.764;2023-04-07T06:26:51;101628.88;;;18.47;49.61
64388;BME280;50709;52.648;4.764;2023-04-07T06:29:16;101630.25;;;18.19;49.86
64388;BME280;50709;52.648;4.764;2023-04-07T06:31:42;101607.09;;;17.78;51.37
64388;BME280;50709;52.648;4.764;2023-04-07T06:34:09;101631.47;;;18.01;50.99
64388;BME280;50709;52.648;4.764;2023-04-07T06:36:55;101632.63;;;18.36;50.49
64388;BME280;50709;52.648;4.764;2023-04-07T06:39:21;101638.03;;;19.22;48.56
64388;BME280;50709;52.648;4.764;2023-04-07T06:42:07;101634.09;;;19.41;48.12
64388;BME280;50709;52.648;4.764;2023-04-07T06:44:32;101641.44;;;19.27;47.57
64388;BME280;50709;52.648;4.764;2023-04-07T06:46:59;101641.19;;;18.97;48.75
64388;BME280;50709;52.648;4.764;2023-04-07T06:49:24;101639.09;;;19.13;48.28
64388;BME280;50709;52.648;4.764;2023-04-07T06:51:50;101640.63;;;19.25;48.30
64388;BME280;50709;52.648;4.764;2023-04-07T06:54:17;101634.78;;;19.49;47.57
64388;BME280;50709;52.648;4.764;2023-04-07T06:56:42;101641.56;;;19.22;46.88
64388;BME280;50709;52.648;4.764;2023-04-07T06:59:08;101642.06;;;18.97;48.87
64388;BME280;50709;52.648;4.764;2023-04-07T07:01:36;101653.09;;;19.20;48.62
64388;BME280;50709;52.648;4.764;2023-04-07T07:04:04;101652.78;;;18.41;48.18
64388;BME280;50709;52.648;4.764;2023-04-07T07:06:32;101657.41;;;18.78;49.29
64388;BME280;50709;52.648;4.764;2023-04-07T07:08:58;101663.47;;;18.35;50.63
64388;BME280;50709;52.648;4.764;2023-04-07T07:11:24;101652.88;;;18.83;49.37
64388;BME280;50709;52.648;4.764;2023-04-07T07:13:50;101675.13;;;18.73;49.06
64388;BME280;50709;52.648;4.764;2023-04-07T07:16:16;101661.91;;;18.75;49.38
64388;BME280;50709;52.648;4.764;2023-04-07T07:18:42;101666.75;;;18.49;49.66
64388;BME280;50709;52.648;4.764;2023-04-07T07:21:08;101667.19;;;18.73;49.59
64388;BME280;50709;52.648;4.764;2023-04-07T07:23:34;101679.63;;;18.70;49.73
64388;BME280;50709;52.648;4.764;2023-04-07T07:26:23;101663.97;;;19.06;48.43
64388;BME280;50709;52.648;4.764;2023-04-07T07:29:09;101673.94;;;18.41;49.85
64388;BME280;50709;52.648;4.764;2023-04-07T07:31:36;101677.06;;;18.63;49.71
64388;BME280;50709;52.648;4.764;2023-04-07T07:34:01;101677.53;;;18.89;49.13
64388;BME280;50709;52.648;4.764;2023-04-07T07:36:28;101682.81;;;19.34;48.21
64388;BME280;50709;52.648;4.764;2023-04-07T07:39:15;101688.91;;;19.38;48.10
64388;BME280;50709;52.648;4.764;2023-04-07T07:42:00;101694.84;;;19.05;48.73
64388;BME280;50709;52.648;4.764;2023-04-07T07:44:45;101692.94;;;19.12;48.55
64388;BME280;50709;52.648;4.764;2023-04-07T07:47:11;101684.16;;;19.11;48.70
64388;BME280;50709;52.648;4.764;2023-04-07T07:49:49;101693.91;;;19.08;48.55
64388;BME280;50709;52.648;4.764;2023-04-07T07:52:15;101694.34;;;19.31;47.81
64388;BME280;50709;52.648;4.764;2023-04-07T07:54:45;101693.44;;;19.31;48.27
64388;BME280;50709;52.648;4.764;2023-04-07T07:57:11;101705.03;;;18.78;49.33
64388;BME280;50709;52.648;4.764;2023-04-07T07:59:37;101696.84;;;18.44;49.83
64388;BME280;50709;52.648;4.764;2023-04-07T08:02:02;101708.03;;;18.58;49.89
64388;BME280;50709;52.648;4.764;2023-04-07T08:04:27;101706.66;;;18.87;49.53
64388;BME280;50709;52.648;4.764;2023-04-07T08:06:54;101705.38;;;18.60;48.86
64388;BME280;50709;52.648;4.764;2023-04-07T08:09:45;101696.88;;;18.91;48.83
64388;BME280;50709;52.648;4.764;2023-04-07T08:12:11;101720.69;;;18.92;49.01
64388;BME280;50709;52.648;4.764;2023-04-07T08:14:41;101716.22;;;18.44;50.12
64388;BME280;50709;52.648;4.764;2023-04-07T08:17:06;101715.97;;;18.58;50.07
64388;BME280;50709;52.648;4.764;2023-04-07T08:19:33;101715.00;;;18.62;50.32
64388;BME280;50709;52.648;4.764;2023-04-07T08:22:00;101715.81;;;18.67;49.46
64388;BME280;50709;52.648;4.764;2023-04-07T08:24:28;101719.25;;;18.73;50.26
64388;BME280;50709;52.648;4.764;2023-04-07T08:26:54;101722.53;;;18.89;49.88
64388;BME280;50709;52.648;4.764;2023-04-07T08:29:20;101725.03;;;18.96;49.41
64388;BME280;50709;52.648;4.764;2023-04-07T08:31:46;101721.72;;;18.32;50.80
64388;BME280;50709;52.648;4.764;2023-04-07T08:34:14;101719.44;;;18.62;50.35
64388;BME280;50709;52.648;4.764;2023-04-07T08:36:41;101727.44;;;18.59;50.30
64388;BME280;50709;52.648;4.764;2023-04-07T08:39:07;101739.31;;;18.33;51.27
64388;BME280;50709;52.648;4.764;2023-04-07T08:41:39;101737.91;;;18.65;50.56
64388;BME280;50709;52.648;4.764;2023-04-07T08:44:26;101737.44;;;18.93;49.72
64388;BME280;50709;52.648;4.764;2023-04-07T08:46:56;101742.03;;;18.81;50.03
64388;BME280;50709;52.648;4.764;2023-04-07T08:49:23;101743.56;;;18.96;49.45
64388;BME280;50709;52.648;4.764;2023-04-07T08:51:55;101744.66;;;18.83;49.27
64388;BME280;50709;52.648;4.764;2023-04-07T08:54:23;101743.91;;;18.73;50.14
64388;BME280;50709;52.648;4.764;2023-04-07T08:56:49;101753.41;;;18.88;49.82
64388;BME280;50709;52.648;4.764;2023-04-07T08:59:15;101751.81;;;18.22;50.97
64388;BME280;50709;52.648;4.764;2023-04-07T09:01:42;101774.84;;;18.13;51.81
64388;BME280;50709;52.648;4.764;2023-04-07T09:04:09;101761.81;;;18.01;51.97
64388;BME280;50709;52.648;4.764;2023-04-07T09:06:35;101763.59;;;18.57;50.70
64388;BME280;50709;52.648;4.764;2023-04-07T09:09:02;101761.44;;;18.82;50.15
64388;BME280;50709;52.648;4.764;2023-04-07T09:11:29;101773.41;;;18.50;50.89
64388;BME280;50709;52.648;4.764;2023-04-07T09:13:55;101766.00;;;18.72;51.10
64388;BME280;50709;52.648;4.764;2023-04-07T09:16:21;101773.19;;;18.65;51.09
64388;BME280;50709;52.648;4.764;2023-04-07T09:18:48;101764.00;;;18.88;50.09
64388;BME280;50709;52.648;4.764;2023-04-07T09:21:13;101748.19;;;18.27;50.49
64388;BME280;50709;52.648;4.764;2023-04-07T09:23:40;101759.00;;;18.13;51.71
64388;BME280;50709;52.648;4.764;2023-04-07T09:26:26;101774.19;;;18.57;51.11
64388;BME280;50709;52.648;4.764;2023-04-07T09:28:57;101779.44;;;18.58;51.09
64388;BME280;50709;52.648;4.764;2023-04-07T09:31:44;101767.94;;;18.61;50.45
64388;BME280;50709;52.648;4.764;2023-04-07T09:34:31;101793.19;;;18.26;52.34
64388;BME280;50709;52.648;4.764;2023-04-07T09:36:57;101782.69;;;18.21;51.76
64388;BME280;50709;52.648;4.764;2023-04-07T09:39:24;101770.75;;;17.94;52.25
64388;BME280;50709;52.648;4.764;2023-04-07T09:41:49;101763.97;;;18.35;51.27
64388;BME280;50709;52.648;4.764;2023-04-07T09:44:17;101789.72;;;18.22;51.76
64388;BME280;50709;52.648;4.764;2023-04-07T09:46:53;101784.88;;;17.87;52.86
64388;BME280;50709;52.648;4.764;2023-04-07T09:49:19;101779.28;;;17.41;54.37
64388;BME280;50709;52.648;4.764;2023-04-07T09:51:59;101780.59;;;17.78;53.37
64388;BME280;50709;52.648;4.764;2023-04-07T09:54:40;101743.53;;;17.82;52.66
64388;BME280;50709;52.648;4.764;2023-04-07T09:57:10;101792.47;;;18.14;52.81
64388;BME280;50709;52.648;4.764;2023-04-07T09:59:40;101797.53;;;18.31;52.37
64388;BME280;50709;52.648;4.764;2023-04-07T10:02:12;101790.78;;;18.10;52.32
64388;BME280;50709;52.648;4.764;2023-04-07T10:04:38;101809.06;;;18.24;52.35
64388;BME280;50709;52.648;4.764;2023-04-07T10:07:06;101805.47;;;18.30;52.77
64388;BME280;50709;52.648;4.764;2023-04-07T10:09:32;101798.97;;;18.51;52.05
64388;BME280;50709;52.648;4.764;2023-04-07T10:11:58;101770.28;;;18.26;52.04
64388;BME280;50709;52.648;4.764;2023-04-07T10:14:29;101799.84;;;18.52;51.46
64388;BME280;50709;52.648;4.764;2023-04-07T10:16:55;101767.50;;;18.34;51.68
64388;BME280;50709;52.648;4.764;2023-04-07T10:19:22;101750.69;;;18.40;50.47
64388;BME280;50709;52.648;4.764;2023-04-07T10:21:50;101801.34;;;18.70;50.98
64388;BME280;50709;52.648;4.764;2023-04-07T10:27:28;101810.63;;;18.39;51.76
64388;BME280;50709;52.648;4.764;2023-04-07T10:29:56;101814.16;;;18.40;52.08
64388;BME280;50709;52.648;4.764;2023-04-07T10:32:23;101807.81;;;18.50;52.23
64388;BME280;50709;52.648;4.764;2023-04-07T10:37:14;101808.78;;;18.44;52.10
64388;BME280;50709;52.648;4.764;2023-04-07T10:39:44;101814.13;;;18.41;52.07
64388;BME280;50709;52.648;4.764;2023-04-07T10:45:04;101813.03;;;18.55;52.09
64388;BME280;50709;52.648;4.764;2023-04-07T10:47:29;101818.00;;;18.73;51.25
64388;BME280;50709;52.648;4.764;2023-04-07T10:50:20;101822.25;;;18.83;50.89
64388;BME280;50709;52.648;4.764;2023-04-07T10:52:48;101824.84;;;18.87;50.89
64388;BME280;50709;52.648;4.764;2023-04-07T10:55:38;101825.13;;;18.71;51.54
64388;BME280;50709;52.648;4.764;2023-04-07T11:03:36;101836.72;;;18.61;52.09
64388;BME280;50709;52.648;4.764;2023-04-07T11:06:10;101797.34;;;18.44;51.73
64388;BME280;50709;52.648;4.764;2023-04-07T11:11:05;101831.78;;;18.39;52.18
64388;BME280;50709;52.648;4.764;2023-04-07T11:13:44;101843.00;;;17.87;53.59
64388;BME280;50709;52.648;4.764;2023-04-07T11:16:18;101831.97;;;18.25;52.74
64388;BME280;50709;52.648;4.764;2023-04-07T11:18:45;101832.34;;;18.61;51.45
64388;BME280;50709;52.648;4.764;2023-04-07T11:21:18;101850.06;;;18.55;52.34
64388;BME280;50709;52.648;4.764;2023-04-07T11:23:45;101803.63;;;18.35;51.75
64388;BME280;50709;52.648;4.764;2023-04-07T11:26:12;101841.97;;;18.65;51.46
64388;BME280;50709;52.648;4.764;2023-04-07T11:28:52;101840.66;;;18.93;50.96
64388;BME280;50709;52.648;4.764;2023-04-07T11:31:25;101843.69;;;18.68;50.79
64388;BME280;50709;52.648;4.764;2023-04-07T11:33:52;101848.66;;;18.30;52.38
64388;BME280;50709;52.648;4.764;2023-04-07T11:36:29;101847.78;;;18.31;52.04
64388;BME280;50709;52.648;4.764;2023-04-07T11:38:55;101852.13;;;18.36;51.18
64388;BME280;50709;52.648;4.764;2023-04-07T11:41:25;101855.06;;;18.11;53.26
64388;BME280;50709;52.648;4.764;2023-04-07T11:44:20;101855.38;;;18.53;51.88
64388;BME280;50709;52.648;4.764;2023-04-07T11:46:57;101852.91;;;18.41;51.75
64388;BME280;50709;52.648;4.764;2023-04-07T11:49:23;101859.00;;;18.46;51.89
64388;BME280;50709;52.648;4.764;2023-04-07T11:52:05;101840.44;;;18.51;51.37
64388;BME280;50709;52.648;4.764;2023-04-07T11:54:46;101850.28;;;18.39;52.47
64388;BME280;50709;52.648;4.764;2023-04-07T11:57:26;101863.09;;;18.67;51.94
64388;BME280;50709;52.648;4.764;2023-04-07T12:00:21;101862.88;;;18.81;51.29
64388;BME280;50709;52.648;4.764;2023-04-07T12:02:46;101870.44;;;18.49;51.82
64388;BME280;50709;52.648;4.764;2023-04-07T12:05:13;101861.63;;;18.47;52.00
64388;BME280;50709;52.648;4.764;2023-04-07T12:07:39;101868.47;;;18.61;51.84
64388;BME280;50709;52.648;4.764;2023-04-07T12:10:22;101873.03;;;18.51;52.01
64388;BME280;50709;52.648;4.764;2023-04-07T12:12:49;101868.44;;;18.00;52.80
64388;BME280;50709;52.648;4.764;2023-04-07T12:15:15;101870.19;;;18.65;52.11
64388;BME280;50709;52.648;4.764;2023-04-07T12:17:45;101879.75;;;18.13;53.01
64388;BME280;50709;52.648;4.764;2023-04-07T12:20:11;101873.66;;;18.06;52.32
64388;BME280;50709;52.648;4.764;2023-04-07T12:22:37;101878.53;;;18.37;52.45
64388;BME280;50709;52.648;4.764;2023-04-07T12:25:03;101877.28;;;17.97;52.77
64388;BME280;50709;52.648;4.764;2023-04-07T12:27:28;101890.19;;;18.22;52.62
64388;BME280;50709;52.648;4.764;2023-04-07T12:29:54;101884.81;;;18.28;52.53
64388;BME280;50709;52.648;4.764;2023-04-07T12:32:19;101893.53;;;18.38;52.45
64388;BME280;50709;52.648;4.764;2023-04-07T12:34:45;101897.75;;;18.48;52.07
64388;BME280;50709;52.648;4.764;2023-04-07T12:37:12;101889.75;;;18.55;52.13
64388;BME280;50709;52.648;4.764;2023-04-07T12:39:37;101888.03;;;18.52;52.44
64388;BME280;50709;52.648;4.764;2023-04-07T12:42:02;101890.59;;;18.57;52.17
64388;BME280;50709;52.648;4.764;2023-04-07T12:44:30;101891.72;;;18.39;52.47
64388;BME280;50709;52.648;4.764;2023-04-07T12:46:55;101900.69;;;18.28;52.81
64388;BME280;50709;52.648;4.764;2023-04-07T12:49:21;101891.63;;;18.46;52.29
64388;BME280;50709;52.648;4.764;2023-04-07T12:51:47;101906.50;;;18.55;51.57
64388;BME280;50709;52.648;4.764;2023-04-07T12:54:13;101892.97;;;18.13;52.28
64388;BME280;50709;52.648;4.764;2023-04-07T12:56:39;101906.72;;;18.40;52.23
64388;BME280;50709;52.648;4.764;2023-04-07T12:59:06;101897.19;;;18.26;52.70
64388;BME280;50709;52.648;4.764;2023-04-07T13:01:32;101885.28;;;17.93;52.53
64388;BME280;50709;52.648;4.764;2023-04-07T13:03:59;101902.63;;;18.12;53.45
64388;BME280;50709;52.648;4.764;2023-04-07T13:06:24;101900.91;;;18.11;52.59
64388;BME280;50709;52.648;4.764;2023-04-07T13:08:50;101898.34;;;18.05;53.68
64388;BME280;50709;52.648;4.764;2023-04-07T13:11:17;101901.50;;;18.33;52.81
64388;BME280;50709;52.648;4.764;2023-04-07T13:13:42;101895.00;;;18.58;51.78
64388;BME280;50709;52.648;4.764;2023-04-07T13:16:08;101899.09;;;18.79;50.77
64388;BME280;50709;52.648;4.764;2023-04-07T13:18:33;101903.91;;;18.51;51.88
64388;BME280;50709;52.648;4.764;2023-04-07T13:20:58;101905.94;;;18.30;52.34
64388;BME280;50709;52.648;4.764;2023-04-07T13:23:44;101908.44;;;18.41;53.08
64388;BME280;50709;52.648;4.764;2023-04-07T13:26:10;101911.56;;;18.69;52.06
64388;BME280;50709;52.648;4.764;2023-04-07T13:28:37;101919.31;;;18.83;51.42
64388;BME280;50709;52.648;4.764;2023-04-07T13:31:03;101906.16;;;18.77;51.71